EUS17RA EIDW-EINN
Flight info
| Callsign | EUS17RA |
|---|---|
| Flight time | 0h 25m |
| Altitude | 16000 |
| Route | PELIG2J PELIG DCT DIGAN DIGAN2D |
| Aircraft | A320/M-SDE3FGHIRWY/LB1 |
Departure
| Time | 2026-05-07 17:24 |
|---|---|
| Airport | Dublin Airport (EIDW) |
Arrival
| Time | 2026-05-07 17:50 |
|---|---|
| Airport | Shannon Airport (EINN) |
| Time | Latitude | Longitude | Altitude | Speed | Heading |
|---|---|---|---|---|---|
| 2026-05-07 15:57 | 53.43000 | -6.24747 | 211 ft | 0 kts | 5° |
| 2026-05-07 17:12 | 53.42980 | -6.24750 | 211 ft | 4 kts | 5° |
| 2026-05-07 17:12 | 53.42958 | -6.24754 | 211 ft | 3 kts | 4° |
| 2026-05-07 17:12 | 53.42940 | -6.24743 | 211 ft | 4 kts | 285° |
| 2026-05-07 17:12 | 53.42937 | -6.24718 | 213 ft | 1 kts | 275° |
| 2026-05-07 17:13 | 53.42939 | -6.24753 | 211 ft | 1 kts | 275° |
| 2026-05-07 17:13 | 53.42939 | -6.24754 | 211 ft | 1 kts | 275° |
| 2026-05-07 17:16 | 53.42939 | -6.24758 | 211 ft | 2 kts | 275° |
| 2026-05-07 17:17 | 53.42945 | -6.24855 | 211 ft | 12 kts | 275° |
| 2026-05-07 17:17 | 53.42953 | -6.25004 | 211 ft | 13 kts | 276° |
| 2026-05-07 17:17 | 53.42960 | -6.25118 | 211 ft | 9 kts | 275° |
| 2026-05-07 17:17 | 53.42960 | -6.25131 | 211 ft | 0 kts | 274° |
| 2026-05-07 17:18 | 53.42961 | -6.25144 | 211 ft | 4 kts | 275° |
| 2026-05-07 17:18 | 53.42963 | -6.25182 | 211 ft | 4 kts | 274° |
| 2026-05-07 17:18 | 53.42951 | -6.25274 | 215 ft | 12 kts | 248° |
| 2026-05-07 17:18 | 53.42994 | -6.25390 | 213 ft | 15 kts | 335° |
| 2026-05-07 17:19 | 53.43084 | -6.25455 | 211 ft | 13 kts | 336° |
| 2026-05-07 17:19 | 53.43166 | -6.25515 | 211 ft | 12 kts | 336° |
| 2026-05-07 17:19 | 53.43241 | -6.25569 | 212 ft | 11 kts | 337° |
| 2026-05-07 17:19 | 53.43308 | -6.25616 | 218 ft | 10 kts | 337° |
| 2026-05-07 17:20 | 53.43368 | -6.25652 | 213 ft | 8 kts | 357° |
| 2026-05-07 17:20 | 53.43404 | -6.25603 | 211 ft | 6 kts | 73° |
| 2026-05-07 17:20 | 53.43407 | -6.25537 | 211 ft | 5 kts | 90° |
| 2026-05-07 17:20 | 53.43407 | -6.25485 | 211 ft | 4 kts | 90° |
| 2026-05-07 17:21 | 53.43402 | -6.25438 | 211 ft | 8 kts | 98° |
| 2026-05-07 17:21 | 53.43391 | -6.25267 | 215 ft | 18 kts | 96° |
| 2026-05-07 17:21 | 53.43378 | -6.25057 | 211 ft | 19 kts | 95° |
| 2026-05-07 17:21 | 53.43364 | -6.24828 | 215 ft | 20 kts | 96° |
| 2026-05-07 17:22 | 53.43351 | -6.24584 | 211 ft | 22 kts | 95° |
| 2026-05-07 17:22 | 53.43335 | -6.24321 | 211 ft | 23 kts | 94° |
| 2026-05-07 17:22 | 53.43322 | -6.24052 | 211 ft | 23 kts | 94° |
| 2026-05-07 17:22 | 53.43343 | -6.23864 | 212 ft | 12 kts | 36° |
| 2026-05-07 17:23 | 53.43418 | -6.23841 | 215 ft | 11 kts | 355° |
| 2026-05-07 17:23 | 53.43480 | -6.23890 | 211 ft | 10 kts | 292° |
| 2026-05-07 17:23 | 53.43486 | -6.23982 | 209 ft | 0 kts | 272° |
| 2026-05-07 17:23 | 53.43490 | -6.24055 | 214 ft | 32 kts | 275° |
| 2026-05-07 17:24 | 53.43538 | -6.24867 | 213 ft | 104 kts | 275° |
| 2026-05-07 17:24 | 53.43619 | -6.26375 | 216 ft | 157 kts | 275° |
| 2026-05-07 17:24 | 53.43740 | -6.28355 | 600 ft | 170 kts | 274° |
| 2026-05-07 17:24 | 53.43846 | -6.30315 | 1344 ft | 168 kts | 274° |
| 2026-05-07 17:25 | 53.44052 | -6.32219 | 2126 ft | 168 kts | 288° |
| 2026-05-07 17:25 | 53.44749 | -6.33898 | 2533 ft | 190 kts | 311° |
| 2026-05-07 17:25 | 53.45748 | -6.35551 | 2814 ft | 213 kts | 314° |
| 2026-05-07 17:25 | 53.46849 | -6.37351 | 3276 ft | 231 kts | 314° |
| 2026-05-07 17:26 | 53.48056 | -6.39344 | 3693 ft | 253 kts | 313° |
| 2026-05-07 17:26 | 53.49250 | -6.41581 | 4473 ft | 260 kts | 307° |
| 2026-05-07 17:26 | 53.50359 | -6.44002 | 5380 ft | 263 kts | 303° |
| 2026-05-07 17:26 | 53.51101 | -6.46772 | 6225 ft | 262 kts | 274° |
| 2026-05-07 17:27 | 53.50826 | -6.49773 | 7020 ft | 263 kts | 248° |
| 2026-05-07 17:27 | 53.50069 | -6.52579 | 7860 ft | 266 kts | 242° |
| 2026-05-07 17:27 | 53.49196 | -6.55330 | 8694 ft | 269 kts | 241° |
| 2026-05-07 17:27 | 53.48297 | -6.58112 | 9546 ft | 273 kts | 242° |
| 2026-05-07 17:28 | 53.47400 | -6.60959 | 10239 ft | 282 kts | 243° |
| 2026-05-07 17:28 | 53.46419 | -6.63962 | 10479 ft | 305 kts | 237° |
| 2026-05-07 17:28 | 53.45228 | -6.67003 | 10952 ft | 317 kts | 237° |
| 2026-05-07 17:28 | 53.44027 | -6.70148 | 11688 ft | 321 kts | 238° |
| 2026-05-07 17:29 | 53.42847 | -6.73288 | 12444 ft | 324 kts | 238° |
| 2026-05-07 17:29 | 53.41629 | -6.76546 | 13216 ft | 327 kts | 238° |
| 2026-05-07 17:29 | 53.40415 | -6.79786 | 13948 ft | 330 kts | 238° |
| 2026-05-07 17:29 | 53.39187 | -6.83051 | 14603 ft | 333 kts | 238° |
| 2026-05-07 17:30 | 53.37957 | -6.86307 | 15235 ft | 336 kts | 238° |
| 2026-05-07 17:30 | 53.36695 | -6.89630 | 15765 ft | 340 kts | 238° |
| 2026-05-07 17:30 | 53.35421 | -6.92971 | 15902 ft | 339 kts | 238° |
| 2026-05-07 17:30 | 53.34174 | -6.96239 | 15925 ft | 330 kts | 238° |
| 2026-05-07 17:31 | 53.32943 | -6.99466 | 15931 ft | 328 kts | 238° |
| 2026-05-07 17:31 | 53.31716 | -7.02680 | 15933 ft | 327 kts | 238° |
| 2026-05-07 17:31 | 53.30489 | -7.05891 | 15930 ft | 327 kts | 238° |
| 2026-05-07 17:31 | 53.29268 | -7.09086 | 15926 ft | 327 kts | 238° |
| 2026-05-07 17:32 | 53.28046 | -7.12289 | 15935 ft | 326 kts | 238° |
| 2026-05-07 17:32 | 53.26823 | -7.15491 | 15932 ft | 326 kts | 238° |
| 2026-05-07 17:32 | 53.25599 | -7.18693 | 15924 ft | 326 kts | 238° |
| 2026-05-07 17:32 | 53.24792 | -7.20796 | 15924 ft | 326 kts | 237° |
| 2026-05-07 17:33 | 53.23163 | -7.25021 | 15933 ft | 326 kts | 237° |
| 2026-05-07 17:33 | 53.21935 | -7.28198 | 15932 ft | 326 kts | 237° |
| 2026-05-07 17:33 | 53.20703 | -7.31384 | 15930 ft | 326 kts | 237° |
| 2026-05-07 17:33 | 53.19554 | -7.34646 | 15936 ft | 326 kts | 244° |
| 2026-05-07 17:34 | 53.18548 | -7.38035 | 15946 ft | 326 kts | 243° |
| 2026-05-07 17:34 | 53.17535 | -7.41435 | 15937 ft | 326 kts | 243° |
| 2026-05-07 17:34 | 53.16524 | -7.44818 | 15948 ft | 326 kts | 243° |
| 2026-05-07 17:34 | 53.15512 | -7.48193 | 15938 ft | 326 kts | 243° |
| 2026-05-07 17:35 | 53.14497 | -7.51574 | 15945 ft | 326 kts | 243° |
| 2026-05-07 17:35 | 53.13482 | -7.54951 | 15938 ft | 326 kts | 243° |
| 2026-05-07 17:35 | 53.12463 | -7.58328 | 15940 ft | 326 kts | 243° |
| 2026-05-07 17:35 | 53.11446 | -7.61688 | 15944 ft | 326 kts | 243° |
| 2026-05-07 17:36 | 53.10422 | -7.65078 | 15942 ft | 333 kts | 243° |
| 2026-05-07 17:36 | 53.09393 | -7.68486 | 15935 ft | 327 kts | 243° |
| 2026-05-07 17:36 | 53.08367 | -7.71866 | 15939 ft | 326 kts | 243° |
| 2026-05-07 17:36 | 53.07343 | -7.75229 | 15940 ft | 329 kts | 243° |
| 2026-05-07 17:37 | 53.06297 | -7.78672 | 15930 ft | 337 kts | 243° |
| 2026-05-07 17:37 | 53.05251 | -7.82112 | 15933 ft | 337 kts | 243° |
| 2026-05-07 17:37 | 53.04209 | -7.85529 | 15864 ft | 325 kts | 243° |
| 2026-05-07 17:37 | 53.03202 | -7.88825 | 15734 ft | 315 kts | 243° |
| 2026-05-07 17:38 | 53.02230 | -7.92011 | 15605 ft | 305 kts | 243° |
| 2026-05-07 17:38 | 53.01277 | -7.95130 | 15340 ft | 300 kts | 243° |
| 2026-05-07 17:38 | 53.00337 | -7.98193 | 15019 ft | 298 kts | 243° |
| 2026-05-07 17:38 | 52.99396 | -8.01254 | 14672 ft | 296 kts | 243° |
| 2026-05-07 17:39 | 52.98464 | -8.04282 | 14334 ft | 295 kts | 243° |
| 2026-05-07 17:39 | 52.97520 | -8.07346 | 13640 ft | 305 kts | 243° |
| 2026-05-07 17:39 | 52.96540 | -8.10516 | 12938 ft | 310 kts | 243° |
| 2026-05-07 17:39 | 52.95559 | -8.13696 | 12063 ft | 309 kts | 243° |
| 2026-05-07 17:40 | 52.94577 | -8.16879 | 11208 ft | 309 kts | 243° |
| 2026-05-07 17:40 | 52.93784 | -8.20159 | 10476 ft | 304 kts | 256° |
| 2026-05-07 17:40 | 52.93510 | -8.23557 | 10043 ft | 292 kts | 264° |
| 2026-05-07 17:40 | 52.93343 | -8.26833 | 9623 ft | 279 kts | 264° |
| 2026-05-07 17:41 | 52.93175 | -8.29973 | 9228 ft | 267 kts | 264° |
| 2026-05-07 17:41 | 52.93011 | -8.32969 | 8866 ft | 254 kts | 264° |
| 2026-05-07 17:41 | 52.92856 | -8.35790 | 8513 ft | 243 kts | 264° |
| 2026-05-07 17:41 | 52.92709 | -8.38524 | 8181 ft | 234 kts | 264° |
| 2026-05-07 17:42 | 52.92568 | -8.41189 | 7847 ft | 232 kts | 264° |
| 2026-05-07 17:42 | 52.92356 | -8.43837 | 7490 ft | 231 kts | 253° |
| 2026-05-07 17:42 | 52.91714 | -8.46262 | 7146 ft | 230 kts | 236° |
| 2026-05-07 17:42 | 52.90758 | -8.48420 | 6621 ft | 237 kts | 232° |
| 2026-05-07 17:43 | 52.89735 | -8.50585 | 6162 ft | 236 kts | 232° |
| 2026-05-07 17:43 | 52.88755 | -8.52689 | 5813 ft | 226 kts | 232° |
| 2026-05-07 17:43 | 52.87821 | -8.54704 | 5509 ft | 216 kts | 232° |
| 2026-05-07 17:43 | 52.86927 | -8.56635 | 5206 ft | 207 kts | 232° |
| 2026-05-07 17:44 | 52.86354 | -8.57871 | 5032 ft | 201 kts | 232° |
| 2026-05-07 17:44 | 52.85511 | -8.59688 | 4763 ft | 196 kts | 232° |
| 2026-05-07 17:44 | 52.84683 | -8.61472 | 4498 ft | 195 kts | 232° |
| 2026-05-07 17:44 | 52.83867 | -8.63230 | 4269 ft | 191 kts | 232° |
| 2026-05-07 17:45 | 52.82804 | -8.65516 | 3892 ft | 186 kts | 233° |
| 2026-05-07 17:45 | 52.82278 | -8.66647 | 3716 ft | 182 kts | 232° |
| 2026-05-07 17:45 | 52.81514 | -8.68288 | 3478 ft | 177 kts | 233° |
| 2026-05-07 17:45 | 52.80539 | -8.70381 | 3168 ft | 171 kts | 233° |
| 2026-05-07 17:46 | 52.80052 | -8.71425 | 3010 ft | 167 kts | 232° |
| 2026-05-07 17:46 | 52.79360 | -8.72909 | 2786 ft | 163 kts | 233° |
| 2026-05-07 17:46 | 52.78695 | -8.74335 | 2567 ft | 151 kts | 233° |
| 2026-05-07 17:46 | 52.78081 | -8.75649 | 2377 ft | 142 kts | 233° |
| 2026-05-07 17:47 | 52.77487 | -8.76920 | 2209 ft | 136 kts | 233° |
| 2026-05-07 17:47 | 52.76917 | -8.78142 | 2012 ft | 134 kts | 234° |
| 2026-05-07 17:47 | 52.76350 | -8.79353 | 1817 ft | 134 kts | 234° |
| 2026-05-07 17:47 | 52.75781 | -8.80571 | 1642 ft | 134 kts | 233° |
| 2026-05-07 17:48 | 52.75213 | -8.81785 | 1470 ft | 134 kts | 233° |
| 2026-05-07 17:48 | 52.74648 | -8.82991 | 1277 ft | 133 kts | 233° |
| 2026-05-07 17:48 | 52.74081 | -8.84202 | 1088 ft | 133 kts | 233° |
| 2026-05-07 17:48 | 52.73516 | -8.85409 | 902 ft | 133 kts | 233° |
| 2026-05-07 17:49 | 52.72955 | -8.86610 | 722 ft | 132 kts | 233° |
| 2026-05-07 17:49 | 52.72397 | -8.87825 | 528 ft | 131 kts | 232° |
| 2026-05-07 17:49 | 52.71832 | -8.89009 | 330 ft | 131 kts | 233° |
| 2026-05-07 17:49 | 52.71279 | -8.90196 | 163 ft | 131 kts | 232° |
| 2026-05-07 17:50 | 52.70728 | -8.91378 | 35 ft | 124 kts | 233° |
| 2026-05-07 17:50 | 52.70308 | -8.92268 | 34 ft | 59 kts | 231° |
| 2026-05-07 17:50 | 52.70177 | -8.92541 | 33 ft | 23 kts | 232° |
| 2026-05-07 17:50 | 52.70072 | -8.92765 | 35 ft | 26 kts | 232° |
| 2026-05-07 17:51 | 52.69961 | -8.92987 | 38 ft | 17 kts | 217° |
| 2026-05-07 17:51 | 52.69880 | -8.92896 | 28 ft | 22 kts | 136° |
| 2026-05-07 17:51 | 52.69763 | -8.92709 | 23 ft | 24 kts | 135° |
| 2026-05-07 17:51 | 52.69666 | -8.92540 | 23 ft | 12 kts | 127° |
| 2026-05-07 17:52 | 52.69594 | -8.92426 | 22 ft | 16 kts | 136° |
| 2026-05-07 17:52 | 52.69516 | -8.92269 | 22 ft | 20 kts | 116° |
| 2026-05-07 17:52 | 52.69473 | -8.92065 | 22 ft | 13 kts | 104° |
| 2026-05-07 17:52 | 52.69459 | -8.91971 | 22 ft | 6 kts | 103° |
| 2026-05-07 17:53 | 52.69434 | -8.91946 | 22 ft | 5 kts | 169° |
| 2026-05-07 17:53 | 52.69388 | -8.91951 | 22 ft | 3 kts | 184° |
| 2026-05-07 17:53 | 52.69367 | -8.91953 | 23 ft | 0 kts | 185° |